Terminal Aerodrome Forecast
Issued by NWS Greer, SC

Home | Current Version | Previous Version | Text Only | Print | Product List | Glossary On
Versions: 1 2 3 4 5 6 7 8 9 10 11 12 13 14 15 16 17 18 19 20 21 22 23 24 25 26 27 28 29 30 31 32 33 34 35 36 37
000
FTUS42 KGSP 230949 AAC
TAFCLT
TAF AMD
KCLT 230949Z 2310/2412 21005KT P6SM SCT007 BKN015
      TEMPO 2310/2313 4SM -SHRA OVC007
     FM231300 23005KT P6SM BKN025
     FM231500 24006KT P6SM VCSH SCT035 BKN060
      TEMPO 2318/2322 4SM -TSRA OVC025CB
     FM240200 VRB03KT P6SM BKN100
     FM240900 05006KT 5SM BR BKN015=

USA.gov is the U.S. government's official web portal to all federal, state and local government web resources and services.